Time;durP1;ratioP1;P1;durP2;ratioP2;P2;SDS_P1;SDS_P2;PMS_P1;PMS_P2;Temp;Humidity;BMP_temperature;BMP_pressure;BME280_temperature;BME280_humidity;BME280_pressure;Samples;Min_cycle;Max_cycle;Signal;HPM_P1;HPM_P2
2022/04/28 00:01:53;;;;;;;2.37;2.03;;;9.40;99.90;;;;;;5012906;28;20210;-91
2022/04/28 00:04:19;;;;;;;1.57;1.43;;;9.40;99.90;;;;;;5013834;28;20190;-92
2022/04/28 00:06:45;;;;;;;1.23;1.10;;;9.40;99.90;;;;;;5012994;28;20256;-90
2022/04/28 00:09:11;;;;;;;1.60;1.50;;;9.40;99.90;;;;;;5012038;28;20211;-90
2022/04/28 00:11:36;;;;;;;1.10;1.10;;;9.30;99.90;;;;;;5011877;28;20232;-91
2022/04/28 00:14:02;;;;;;;1.20;1.10;;;9.30;99.90;;;;;;5028508;28;20252;-90
2022/04/28 00:16:29;;;;;;;1.00;1.00;;;9.30;99.90;;;;;;5012097;28;20224;-90
2022/04/28 00:18:55;;;;;;;0.80;0.80;;;9.30;99.90;;;;;;5028845;28;20198;-90
2022/04/28 00:21:20;;;;;;;1.60;1.50;;;9.30;99.90;;;;;;5027670;28;20280;-90
2022/04/28 00:23:46;;;;;;;3.70;1.27;;;9.30;99.90;;;;;;5029349;28;20233;-90
2022/04/28 00:26:12;;;;;;;3.03;1.37;;;9.30;99.90;;;;;;5044664;28;20214;-90
2022/04/28 00:28:38;;;;;;;1.17;0.87;;;9.30;99.90;;;;;;5027959;28;20218;-91
2022/04/28 00:31:04;;;;;;;1.03;1.00;;;9.20;99.90;;;;;;5012389;28;20195;-90
2022/04/28 00:33:30;;;;;;;0.93;0.93;;;9.20;99.90;;;;;;5028146;28;20264;-90
2022/04/28 00:35:56;;;;;;;1.13;1.00;;;9.10;99.90;;;;;;5011110;28;20218;-90
2022/04/28 00:38:22;;;;;;;2.50;1.10;;;9.20;99.90;;;;;;5044130;28;20225;-90
2022/04/28 00:40:48;;;;;;;7.87;1.20;;;9.20;99.90;;;;;;5028216;28;20683;-90
2022/04/28 00:43:19;;;;;;;7.80;2.30;;;9.20;99.90;;;;;;5011567;28;20182;-89
2022/04/28 00:45:49;;;;;;;2.00;1.87;;;9.20;99.90;;;;;;5037599;28;20232;-90
2022/04/28 00:51:03;;;;;;;0.70;0.70;;;9.30;99.90;;;;;;5028735;28;20218;-90
2022/04/28 00:53:30;;;;;;;3.03;0.90;;;9.20;99.90;;;;;;5027661;28;20269;-90
2022/04/28 00:56:00;;;;;;;3.10;2.00;;;9.10;99.90;;;;;;5021403;28;20713;-90
2022/04/28 00:58:26;;;;;;;0.97;0.97;;;9.10;99.90;;;;;;5027958;28;20179;-91
2022/04/28 01:00:56;;;;;;;1.80;1.17;;;9.10;99.90;;;;;;5011329;28;20237;-91
2022/04/28 01:03:22;;;;;;;4.73;1.47;;;9.00;99.90;;;;;;5028086;28;20295;-91
2022/04/28 01:05:47;;;;;;;1.23;1.13;;;9.00;99.90;;;;;;5027375;28;20226;-90
2022/04/28 01:08:15;;;;;;;0.57;0.57;;;9.10;99.90;;;;;;5010825;28;20748;-90
2022/04/28 01:10:41;;;;;;;2.10;1.60;;;9.00;99.90;;;;;;5027362;28;20222;-91
2022/04/28 01:13:07;;;;;;;0.80;0.80;;;9.00;99.90;;;;;;5044607;28;20221;-90
2022/04/28 01:15:43;;;;;;;3.80;1.53;;;9.00;99.90;;;;;;5010468;28;20242;-90
2022/04/28 01:18:09;;;;;;;1.13;1.10;;;9.00;99.90;;;;;;5043530;28;20214;-90
2022/04/28 01:20:35;;;;;;;2.07;1.20;;;9.00;99.90;;;;;;5044087;28;20229;-89
2022/04/28 01:23:03;;;;;;;3.20;1.20;;;9.00;99.90;;;;;;5027233;28;20248;-90
2022/04/28 01:25:29;;;;;;;1.37;1.23;;;9.10;99.90;;;;;;5011349;28;20243;-91
2022/04/28 01:27:55;;;;;;;4.27;1.40;;;9.10;99.90;;;;;;5044520;28;20569;-90
2022/04/28 01:30:21;;;;;;;3.70;1.33;;;9.20;99.90;;;;;;5044599;28;20217;-90
2022/04/28 01:32:47;;;;;;;1.53;1.43;;;9.20;99.90;;;;;;5011082;28;20214;-90
2022/04/28 01:35:12;;;;;;;1.13;1.03;;;9.00;99.90;;;;;;5010913;28;20229;-91
2022/04/28 01:37:38;;;;;;;2.00;1.43;;;9.00;99.90;;;;;;5010845;28;21155;-91
2022/04/28 01:40:08;;;;;;;4.30;2.10;;;9.00;99.90;;;;;;5011512;28;20190;-91
2022/04/28 01:42:34;;;;;;;1.00;1.00;;;9.00;99.90;;;;;;5043140;28;20245;-90
2022/04/28 01:45:00;;;;;;;1.63;1.23;;;9.00;99.90;;;;;;5026726;28;20254;-91
2022/04/28 01:47:26;;;;;;;1.60;1.30;;;9.00;99.90;;;;;;5010936;28;20257;-91
2022/04/28 01:49:51;;;;;;;1.23;1.20;;;8.90;99.90;;;;;;5019992;28;20226;-91
2022/04/28 01:55:02;;;;;;;3.23;1.07;;;8.80;99.90;;;;;;5027636;28;20218;-90
2022/04/28 01:57:29;;;;;;;1.60;1.47;;;8.90;99.90;;;;;;5026573;28;20237;-91
2022/04/28 01:59:57;;;;;;;3.67;1.43;;;8.90;99.90;;;;;;5036334;28;20729;-91
2022/04/28 02:02:23;;;;;;;3.00;1.30;;;9.00;99.90;;;;;;5027528;28;20296;-90
2022/04/28 02:04:49;;;;;;;1.67;1.23;;;9.00;99.90;;;;;;5043667;28;20210;-91
2022/04/28 02:07:15;;;;;;;1.27;1.17;;;9.10;99.90;;;;;;5010789;28;20186;-90
2022/04/28 02:09:42;;;;;;;1.57;1.47;;;9.10;99.90;;;;;;5027348;28;20299;-89
2022/04/28 02:12:09;;;;;;;3.27;2.03;;;9.20;99.90;;;;;;5059474;28;20299;-90
2022/04/28 02:14:35;;;;;;;1.37;1.27;;;9.20;99.90;;;;;;5063378;28;20290;-91
2022/04/28 02:17:01;;;;;;;1.77;1.40;;;9.20;99.90;;;;;;5046584;28;20239;-90
2022/04/28 02:19:27;;;;;;;1.03;0.93;;;9.20;99.90;;;;;;5061373;28;20284;-90
2022/04/28 02:21:52;;;;;;;1.77;1.10;;;9.20;99.90;;;;;;5011530;28;20191;-90
2022/04/28 02:24:18;;;;;;;1.17;1.07;;;9.10;99.90;;;;;;5010621;28;20226;-91
2022/04/28 02:26:44;;;;;;;1.50;1.40;;;9.10;99.90;;;;;;5010618;28;20244;-92
2022/04/28 02:29:09;;;;;;;1.50;1.40;;;9.10;99.90;;;;;;5060111;28;20218;-91
2022/04/28 02:31:35;;;;;;;2.17;1.97;;;8.90;99.90;;;;;;5010226;28;20230;-90
2022/04/28 02:34:01;;;;;;;1.40;1.30;;;9.00;99.90;;;;;;5020423;28;20214;-90
2022/04/28 02:36:27;;;;;;;1.20;1.10;;;9.00;99.90;;;;;;5026625;28;20302;-90
2022/04/28 02:38:53;;;;;;;2.27;1.40;;;9.00;99.90;;;;;;5043382;28;20774;-91
2022/04/28 02:41:21;;;;;;;1.63;1.50;;;9.00;99.90;;;;;;5027180;28;20222;-90
2022/04/28 02:43:51;;;;;;;4.10;1.60;;;9.10;99.90;;;;;;5018781;28;20298;-89
2022/04/28 02:46:18;;;;;;;2.10;1.47;;;9.10;99.90;;;;;;5019827;28;20202;-90
2022/04/28 02:48:45;;;;;;;4.10;1.17;;;9.10;99.90;;;;;;5043326;28;20183;-90
2022/04/28 02:51:11;;;;;;;1.67;1.43;;;9.20;99.90;;;;;;5019544;28;20214;-91
2022/04/28 02:53:37;;;;;;;3.07;1.77;;;9.20;99.90;;;;;;5009781;28;20243;-90
2022/04/28 02:56:03;;;;;;;2.37;1.53;;;9.10;99.90;;;;;;5009741;28;20218;-90
2022/04/28 02:58:29;;;;;;;3.67;2.60;;;9.10;99.90;;;;;;5010411;28;20544;-89
2022/04/28 03:00:54;;;;;;;10.13;2.43;;;9.10;99.90;;;;;;5027508;28;20191;-90
2022/04/28 03:03:20;;;;;;;5.00;2.37;;;9.10;99.90;;;;;;5029914;28;20313;-90
2022/04/28 03:11:16;;;;;;;1.83;1.67;;;9.00;99.90;;;;;;5044254;28;20218;-90
2022/04/28 03:13:42;;;;;;;1.67;1.57;;;9.10;99.90;;;;;;5028137;28;20231;-90
2022/04/28 03:16:08;;;;;;;14.53;1.53;;;9.10;99.90;;;;;;5030493;28;20194;-91
2022/04/28 03:18:33;;;;;;;1.73;1.63;;;9.00;99.90;;;;;;5046095;28;20226;-90
2022/04/28 03:20:59;;;;;;;1.43;1.33;;;9.00;99.90;;;;;;5012838;28;20222;-91
2022/04/28 03:23:25;;;;;;;1.77;1.37;;;9.10;99.90;;;;;;5029607;28;20219;-91
2022/04/28 03:25:52;;;;;;;2.60;1.73;;;9.10;99.90;;;;;;5045788;28;20632;-91
2022/04/28 03:28:22;;;;;;;2.53;2.33;;;9.20;99.90;;;;;;5012778;28;20201;-90
2022/04/28 03:30:48;;;;;;;4.13;1.73;;;9.30;99.90;;;;;;5046380;28;20186;-91
2022/04/28 03:33:15;;;;;;;2.00;1.57;;;9.30;99.90;;;;;;5030673;28;20258;-89
2022/04/28 03:35:42;;;;;;;1.43;1.23;;;9.30;99.90;;;;;;5045572;28;20221;-89
2022/04/28 03:38:12;;;;;;;4.70;2.40;;;9.40;99.90;;;;;;5029123;28;20229;-90
2022/04/28 03:40:39;;;;;;;5.67;2.40;;;9.40;99.90;;;;;;5030746;28;20851;-91
2022/04/28 03:43:05;;;;;;;4.00;1.10;;;9.40;99.90;;;;;;5046961;28;20209;-92
2022/04/28 03:45:32;;;;;;;2.37;2.17;;;9.40;99.90;;;;;;5013067;28;20695;-91
2022/04/28 03:47:58;;;;;;;15.13;2.13;;;9.40;99.90;;;;;;5029402;28;20782;-90
2022/04/28 03:50:24;;;;;;;3.40;2.30;;;9.40;99.90;;;;;;5022136;28;20309;-91
2022/04/28 03:52:50;;;;;;;3.30;1.70;;;9.30;99.90;;;;;;5028769;28;20261;-89
2022/04/28 03:55:16;;;;;;;3.50;2.50;;;9.40;99.90;;;;;;5012637;28;20201;-91
2022/04/28 03:57:42;;;;;;;5.23;2.13;;;9.30;99.90;;;;;;5013266;28;20195;-91
2022/04/28 04:00:08;;;;;;;3.50;2.13;;;9.40;99.90;;;;;;5028445;28;20218;-91
2022/04/28 04:02:34;;;;;;;4.40;2.03;;;9.30;99.90;;;;;;5011980;28;20229;-91
2022/04/28 04:04:59;;;;;;;2.43;1.93;;;9.30;99.90;;;;;;5012255;28;20214;-90
2022/04/28 04:07:32;;;;;;;1.50;1.40;;;9.30;99.90;;;;;;5012161;28;20281;-91
2022/04/28 04:09:59;;;;;;;17.80;2.73;;;9.20;99.90;;;;;;5029437;28;20179;-91
2022/04/28 04:12:25;;;;;;;12.47;2.13;;;9.10;99.90;;;;;;5028765;28;20218;-90
2022/04/28 04:14:54;;;;;;;3.70;2.10;;;9.10;99.90;;;;;;5028635;28;20227;-90
2022/04/28 04:17:21;;;;;;;2.17;1.53;;;9.00;99.90;;;;;;5028759;28;21218;-90
2022/04/28 04:19:46;;;;;;;6.80;2.07;;;9.00;99.90;;;;;;5027659;28;20222;-90
2022/04/28 04:22:12;;;;;;;1.70;1.60;;;9.00;99.90;;;;;;5010764;28;20191;-90
2022/04/28 04:24:40;;;;;;;1.10;1.10;;;8.90;99.90;;;;;;5045965;28;20187;-89
2022/04/28 04:27:06;;;;;;;7.37;2.67;;;8.80;99.90;;;;;;5028497;28;20222;-89
2022/04/28 04:29:32;;;;;;;4.23;1.37;;;8.80;99.90;;;;;;5012126;28;20222;-90
2022/04/28 04:34:43;;;;;;;2.90;1.40;;;8.70;99.90;;;;;;5031658;28;20586;-89
2022/04/28 04:37:09;;;;;;;1.77;1.67;;;8.70;99.90;;;;;;5028272;28;20233;-90
2022/04/28 04:39:35;;;;;;;1.00;1.00;;;8.80;99.90;;;;;;5029341;28;20218;-90
2022/04/28 04:42:01;;;;;;;1.53;1.30;;;8.70;99.90;;;;;;5011470;28;20231;-90
2022/04/28 04:44:27;;;;;;;2.17;1.17;;;8.80;99.90;;;;;;5028814;28;20253;-88
2022/04/28 04:46:52;;;;;;;2.63;0.93;;;8.80;99.90;;;;;;5029094;28;20229;-89
2022/04/28 04:49:18;;;;;;;1.60;1.40;;;8.80;99.90;;;;;;5028991;28;20253;-91
2022/04/28 04:51:44;;;;;;;2.57;1.90;;;8.90;99.90;;;;;;5045931;28;20187;-89
2022/04/28 04:54:10;;;;;;;1.30;0.90;;;8.90;99.90;;;;;;5028869;28;20242;-90
2022/04/28 04:56:39;;;;;;;2.23;1.73;;;8.90;99.90;;;;;;5045351;28;20210;-90
2022/04/28 04:59:05;;;;;;;4.67;1.43;;;9.00;99.90;;;;;;5029218;28;20817;-89
2022/04/28 05:01:30;;;;;;;4.20;1.30;;;9.00;99.90;;;;;;5011804;28;20282;-89
2022/04/28 05:03:56;;;;;;;1.43;1.33;;;9.00;99.90;;;;;;5046853;28;20581;-90
2022/04/28 05:06:22;;;;;;;4.80;1.87;;;9.00;99.90;;;;;;5028548;28;20221;-88
2022/04/28 05:08:48;;;;;;;1.40;1.30;;;9.00;99.90;;;;;;5012501;28;20221;-90
2022/04/28 05:11:13;;;;;;;2.37;1.13;;;9.10;99.90;;;;;;5011728;28;20299;-87
2022/04/28 05:13:39;;;;;;;2.80;1.50;;;9.20;99.90;;;;;;5011568;28;20222;-92
2022/04/28 05:16:05;;;;;;;1.57;1.47;;;9.20;99.90;;;;;;5014638;28;20348;-88
2022/04/28 05:18:31;;;;;;;3.70;1.33;;;9.30;99.90;;;;;;5027745;28;20229;-87
2022/04/28 05:20:57;;;;;;;1.00;1.00;;;9.40;99.90;;;;;;5026657;28;20218;-87
2022/04/28 05:23:23;;;;;;;10.27;2.03;;;9.30;99.90;;;;;;5026242;28;20218;-87
2022/04/28 05:25:49;;;;;;;1.23;1.03;;;9.30;99.90;;;;;;5010743;28;20817;-87
2022/04/28 05:28:15;;;;;;;2.60;2.40;;;9.40;99.90;;;;;;5011088;28;20635;-87
2022/04/28 05:30:41;;;;;;;3.83;1.70;;;9.40;99.90;;;;;;5027808;28;20183;-87
2022/04/28 05:33:07;;;;;;;3.73;1.47;;;9.40;99.90;;;;;;5019517;28;20633;-88
2022/04/28 05:35:40;;;;;;;1.57;1.43;;;9.60;99.90;;;;;;5044290;28;20305;-88
2022/04/28 05:38:08;;;;;;;1.60;0.90;;;9.70;99.90;;;;;;5028290;28;20238;-88
2022/04/28 05:40:34;;;;;;;3.33;1.70;;;9.80;99.90;;;;;;5026935;28;20293;-88
2022/04/28 05:45:48;;;;;;;9.17;1.37;;;10.00;99.90;;;;;;5027967;28;20222;-88
2022/04/28 05:48:16;;;;;;;4.03;1.13;;;10.00;99.90;;;;;;5027084;28;20241;-87
2022/04/28 05:50:42;;;;;;;1.37;0.83;;;10.10;99.90;;;;;;5010263;28;20217;-88
2022/04/28 05:53:08;;;;;;;1.63;0.97;;;10.00;99.90;;;;;;5027711;28;20685;-88
2022/04/28 05:55:34;;;;;;;1.80;0.80;;;10.20;99.90;;;;;;5026766;28;20218;-91
2022/04/28 05:58:00;;;;;;;0.60;0.60;;;10.50;99.90;;;;;;5044220;28;21100;-87
2022/04/28 06:00:27;;;;;;;5.07;1.00;;;10.70;99.90;;;;;;5009971;28;20241;-87
2022/04/28 06:02:53;;;;;;;1.77;1.30;;;11.80;99.90;;;;;;5010102;28;20721;-91
2022/04/28 06:05:19;;;;;;;6.00;1.20;;;14.10;99.90;;;;;;5027600;28;20207;-89
2022/04/28 06:07:45;;;;;;;2.00;1.03;;;15.20;99.90;;;;;;5026640;28;20245;-90
2022/04/28 06:10:12;;;;;;;0.77;0.70;;;15.80;99.90;;;;;;5010114;28;20213;-86
2022/04/28 06:12:38;;;;;;;0.60;0.60;;;17.40;99.90;;;;;;5009647;28;20218;-87
2022/04/28 06:15:04;;;;;;;1.60;1.47;;;16.00;99.90;;;;;;5009260;28;20257;-86
2022/04/28 06:17:30;;;;;;;5.93;1.27;;;16.60;99.90;;;;;;5025872;28;20259;-89
2022/04/28 06:19:55;;;;;;;2.80;1.27;;;18.40;99.90;;;;;;5041828;28;20260;-86
2022/04/28 06:22:21;;;;;;;2.40;1.00;;;19.60;99.90;;;;;;5042682;28;20762;-86
2022/04/28 06:24:54;;;;;;;1.73;1.00;;;19.70;99.90;;;;;;5009896;28;20285;-89
2022/04/28 06:27:20;;;;;;;4.77;1.43;;;19.70;99.90;;;;;;5026604;28;20225;-86
2022/04/28 06:29:48;;;;;;;3.90;1.30;;;18.30;99.90;;;;;;5009602;28;20251;-86
2022/04/28 06:32:18;;;;;;;3.73;1.00;;;17.70;99.90;;;;;;5041664;28;20218;-86
2022/04/28 06:34:45;;;;;;;1.13;0.80;;;18.00;99.90;;;;;;5025956;28;20284;-85
2022/04/28 06:37:12;;;;;;;6.13;1.13;;;18.40;99.90;;;;;;5029934;28;20195;-88
2022/04/28 06:39:38;;;;;;;2.13;0.70;;;19.40;99.90;;;;;;5050094;28;20217;-89
2022/04/28 06:42:04;;;;;;;2.37;0.80;;;19.70;99.90;;;;;;5050434;28;20222;-86
2022/04/28 06:44:30;;;;;;;0.87;0.73;;;20.00;99.90;;;;;;5022822;28;20264;-86
2022/04/28 06:46:55;;;;;;;2.70;0.83;;;20.00;99.90;;;;;;5013167;28;20255;-88
2022/04/28 06:49:21;;;;;;;2.70;0.80;;;17.50;99.90;;;;;;5029791;28;20272;-87
2022/04/28 06:51:47;;;;;;;5.13;1.10;;;16.20;99.90;;;;;;5014108;28;20208;-87
2022/04/28 06:54:13;;;;;;;3.10;1.43;;;15.80;99.90;;;;;;5020186;28;20564;-87
2022/04/28 06:56:39;;;;;;;1.90;0.50;;;14.90;99.90;;;;;;5062910;28;20321;-90
2022/04/28 06:59:05;;;;;;;0.63;0.63;;;13.90;99.90;;;;;;5028658;28;20301;-89
2022/04/28 07:01:31;;;;;;;1.77;0.60;;;12.90;99.90;;;;;;5046042;28;20195;-89
2022/04/28 07:03:57;;;;;;;2.30;1.00;;;12.10;99.90;;;;;;5030361;28;21003;-88
2022/04/28 07:06:23;;;;;;;1.27;1.17;;;12.20;99.90;;;;;;5029719;28;20303;-88
2022/04/28 07:08:49;;;;;;;1.30;1.20;;;12.50;99.90;;;;;;5029288;28;20215;-88
2022/04/28 07:11:15;;;;;;;0.77;0.57;;;12.20;99.90;;;;;;5061336;28;20222;-88
2022/04/28 07:13:41;;;;;;;0.80;0.80;;;11.60;99.90;;;;;;5029648;28;20234;-88
2022/04/28 07:16:07;;;;;;;7.80;1.27;;;11.30;99.90;;;;;;5020023;28;20529;-89
2022/04/28 07:18:33;;;;;;;0.83;0.73;;;11.20;99.90;;;;;;5029107;28;20226;-88
2022/04/28 07:21:03;;;;;;;1.97;1.07;;;11.40;99.90;;;;;;5013081;28;20237;-89
2022/04/28 07:23:30;;;;;;;4.33;0.60;;;11.30;99.90;;;;;;5029039;28;20242;-89
2022/04/28 07:25:56;;;;;;;3.60;1.53;;;11.60;99.90;;;;;;5045482;28;20219;-90
2022/04/28 07:28:22;;;;;;;0.67;0.67;;;11.70;99.90;;;;;;5013043;28;20194;-89
2022/04/28 07:30:48;;;;;;;0.73;0.73;;;11.50;99.90;;;;;;5021294;28;20182;-90
2022/04/28 07:33:14;;;;;;;0.87;0.40;;;11.30;99.90;;;;;;5012811;28;20714;-89
2022/04/28 07:35:40;;;;;;;1.07;0.80;;;11.30;99.90;;;;;;5045692;28;20224;-89
2022/04/28 07:38:06;;;;;;;2.10;0.90;;;11.30;99.90;;;;;;5012662;28;20305;-91
2022/04/28 07:40:33;;;;;;;7.27;1.00;;;11.60;99.90;;;;;;5012385;28;20241;-90
2022/04/28 07:42:59;;;;;;;1.10;0.60;;;11.70;99.90;;;;;;5039900;28;20269;-89
2022/04/28 07:45:25;;;;;;;0.70;0.70;;;11.70;99.90;;;;;;5029208;28;20222;-89
2022/04/28 07:47:51;;;;;;;1.73;1.10;;;12.20;99.90;;;;;;5028238;28;20691;-89
2022/04/28 07:50:17;;;;;;;0.63;0.63;;;12.40;99.90;;;;;;5045628;28;20849;-89
2022/04/28 07:52:44;;;;;;;0.40;0.40;;;12.00;99.90;;;;;;5045657;28;20218;-89
2022/04/28 07:55:10;;;;;;;9.33;2.00;;;11.60;99.90;;;;;;5028903;28;20257;-89
2022/04/28 07:57:37;;;;;;;1.10;1.00;;;11.40;99.90;;;;;;5012089;28;20215;-89
2022/04/28 08:00:05;;;;;;;10.73;1.30;;;11.40;99.90;;;;;;5028702;28;20573;-89
2022/04/28 08:02:32;;;;;;;0.80;0.80;;;11.90;99.90;;;;;;5045201;28;20914;-89
2022/04/28 08:04:59;;;;;;;3.30;1.10;;;12.20;99.90;;;;;;5045484;28;20234;-89
2022/04/28 08:07:25;;;;;;;3.20;0.63;;;12.30;99.90;;;;;;5029666;28;20210;-90
2022/04/28 08:09:51;;;;;;;1.50;0.77;;;12.20;99.90;;;;;;5012810;28;20206;-89
2022/04/28 08:12:17;;;;;;;7.03;1.57;;;12.00;99.90;;;;;;5028197;28;20222;-89
2022/04/28 08:14:43;;;;;;;3.43;1.30;;;12.20;99.90;;;;;;5028378;28;20223;-89
2022/04/28 08:17:09;;;;;;;6.13;0.70;;;11.90;99.90;;;;;;5020920;28;20218;-88
2022/04/28 08:19:35;;;;;;;1.07;0.70;;;11.80;99.90;;;;;;5027874;28;20277;-89
2022/04/28 08:22:01;;;;;;;3.70;0.90;;;12.00;99.90;;;;;;5045310;28;20248;-90
2022/04/28 08:24:27;;;;;;;1.57;0.77;;;12.00;99.90;;;;;;5028262;28;20246;-88
2022/04/28 08:26:55;;;;;;;3.40;1.00;;;11.90;99.90;;;;;;5044234;28;20237;-90
2022/04/28 08:29:22;;;;;;;1.03;0.83;;;11.60;99.90;;;;;;5011885;28;20210;-88
2022/04/28 08:31:48;;;;;;;2.10;1.00;;;11.50;99.90;;;;;;5044481;28;20245;-89
2022/04/28 08:34:14;;;;;;;1.57;0.97;;;11.10;99.90;;;;;;5044514;28;20277;-90
2022/04/28 08:36:43;;;;;;;8.30;1.47;;;11.00;99.90;;;;;;5028314;28;20410;-88
2022/04/28 08:39:09;;;;;;;6.33;1.63;;;11.10;99.90;;;;;;5028147;28;20230;-88
2022/04/28 08:41:37;;;;;;;2.40;1.20;;;11.40;99.90;;;;;;5044482;28;20222;-91
2022/04/28 08:44:05;;;;;;;13.03;1.53;;;11.70;99.90;;;;;;5029220;28;20833;-91
2022/04/28 08:49:29;;;;;;;5.13;1.47;;;12.10;99.90;;;;;;5041500;28;20723;-89
2022/04/28 08:51:57;;;;;;;5.30;1.10;;;11.90;99.90;;;;;;5046909;28;20654;-90
2022/04/28 08:54:25;;;;;;;1.03;0.93;;;11.90;99.90;;;;;;5027107;28;20299;-90
2022/04/28 08:56:53;;;;;;;2.27;1.40;;;11.80;99.90;;;;;;5043528;28;20225;-90
2022/04/28 08:59:20;;;;;;;2.23;1.67;;;11.70;99.90;;;;;;5027152;28;20725;-89
2022/04/28 09:01:46;;;;;;;2.20;1.17;;;11.40;99.90;;;;;;5027621;28;20272;-89
2022/04/28 09:04:12;;;;;;;3.33;0.90;;;11.60;99.90;;;;;;5027253;28;20198;-89
2022/04/28 09:06:40;;;;;;;1.10;0.87;;;11.60;99.90;;;;;;5012149;28;20191;-89
2022/04/28 09:09:16;;;;;;;1.70;0.67;;;11.40;99.90;;;;;;5018718;28;20330;-89
2022/04/28 09:11:43;;;;;;;3.17;1.13;;;11.60;99.90;;;;;;5042628;28;20222;-89
2022/04/28 09:14:20;;;;;;;1.30;1.20;;;11.60;99.90;;;;;;5027229;28;20707;-89
2022/04/28 09:16:59;;;;;;;4.60;1.30;;;11.60;99.90;;;;;;5027847;28;20214;-90
2022/04/28 09:19:28;;;;;;;4.40;1.40;;;11.50;99.90;;;;;;5044112;28;20197;-89
2022/04/28 09:22:00;;;;;;;6.07;1.30;;;11.40;99.90;;;;;;5044135;28;20186;-89
2022/04/28 09:24:27;;;;;;;3.90;1.50;;;11.30;99.90;;;;;;5027270;28;20238;-89
2022/04/28 09:26:54;;;;;;;3.87;0.93;;;11.40;99.90;;;;;;5027425;28;20238;-88
2022/04/28 09:29:21;;;;;;;7.67;1.67;;;11.60;99.90;;;;;;5026890;28;20337;-88
2022/04/28 09:31:50;;;;;;;1.97;1.77;;;11.70;99.90;;;;;;5043870;28;20206;-90
2022/04/28 09:34:18;;;;;;;2.93;1.37;;;11.70;99.90;;;;;;5043485;28;20203;-90
2022/04/28 09:36:45;;;;;;;1.33;1.07;;;11.80;99.90;;;;;;5011524;28;20183;-89
2022/04/28 09:44:50;;;;;;;4.90;1.97;;;12.20;99.90;;;;;;5046269;28;20228;-90
2022/04/28 09:47:20;;;;;;;5.30;1.50;;;12.10;99.90;;;;;;5063413;28;20218;-90
2022/04/28 09:49:55;;;;;;;1.13;1.03;;;11.90;99.90;;;;;;5063242;28;20232;-90
2022/04/28 09:52:24;;;;;;;3.03;1.53;;;11.80;99.90;;;;;;5030857;28;20670;-89
2022/04/28 09:54:51;;;;;;;1.93;1.03;;;12.10;99.90;;;;;;5047100;28;20240;-90
2022/04/28 09:57:20;;;;;;;3.43;1.00;;;11.90;99.90;;;;;;5045941;28;21002;-90
2022/04/28 09:59:54;;;;;;;6.17;1.63;;;12.00;99.90;;;;;;5046471;28;20214;-89
2022/04/28 10:02:22;;;;;;;1.97;1.37;;;11.80;99.90;;;;;;5030034;28;20301;-90
2022/04/28 10:04:49;;;;;;;2.50;1.57;;;11.60;99.90;;;;;;5063138;28;20716;-90
2022/04/28 10:07:16;;;;;;;1.83;1.30;;;11.70;99.90;;;;;;5063319;28;20251;-89
2022/04/28 10:09:48;;;;;;;2.47;1.83;;;11.80;99.90;;;;;;5038785;28;20226;-90
2022/04/28 10:12:22;;;;;;;2.57;1.10;;;11.90;99.90;;;;;;5042693;28;20233;-88
2022/04/28 10:14:49;;;;;;;2.80;1.10;;;11.90;99.90;;;;;;5067348;28;20225;-89
2022/04/28 10:17:23;;;;;;;2.27;1.27;;;11.90;99.90;;;;;;5066515;28;20316;-89
2022/04/28 10:19:57;;;;;;;8.10;1.20;;;12.00;99.90;;;;;;5084800;28;20644;-90
2022/04/28 10:22:33;;;;;;;1.13;1.03;;;12.20;99.90;;;;;;5050423;28;20640;-90
2022/04/28 10:33:25;;;;;;;4.23;1.30;;;12.40;99.90;;;;;;5063759;28;20290;-90
2022/04/28 10:35:56;;;;;;;3.40;0.90;;;12.30;99.90;;;;;;5067011;28;20218;-89
2022/04/28 10:38:24;;;;;;;6.20;1.40;;;12.30;99.90;;;;;;5042899;28;20218;-88
2022/04/28 10:41:02;;;;;;;4.00;1.83;;;12.20;99.90;;;;;;5050602;28;20304;-88
2022/04/28 10:43:31;;;;;;;2.03;1.10;;;12.10;99.90;;;;;;5049490;28;20272;-89
2022/04/28 10:46:22;;;;;;;6.97;1.40;;;12.20;99.90;;;;;;5083862;28;20248;-89
2022/04/28 10:48:53;;;;;;;7.03;1.20;;;12.00;99.90;;;;;;5036355;28;20260;-89
2022/04/28 10:51:26;;;;;;;5.57;0.90;;;11.90;99.90;;;;;;5050058;28;20210;-89
2022/04/28 10:54:14;;;;;;;1.03;0.80;;;12.10;99.90;;;;;;5026204;28;20242;-89
2022/04/28 10:56:40;;;;;;;4.40;1.47;;;12.10;99.90;;;;;;5065808;28;20218;-89
2022/04/28 10:59:37;;;;;;;4.73;1.70;;;12.40;99.90;;;;;;5049916;28;20226;-89
2022/04/28 11:02:15;;;;;;;3.40;1.57;;;12.20;99.90;;;;;;5083068;28;20275;-89
2022/04/28 11:04:43;;;;;;;1.53;0.70;;;12.10;99.90;;;;;;5051223;28;20218;-88
2022/04/28 11:07:11;;;;;;;2.00;1.23;;;12.00;99.90;;;;;;5083118;28;20185;-88
2022/04/28 11:09:49;;;;;;;2.53;1.27;;;11.90;99.90;;;;;;5049402;28;20218;-87
2022/04/28 11:12:20;;;;;;;10.20;1.73;;;12.10;99.90;;;;;;5049869;28;20294;-88
2022/04/28 11:14:59;;;;;;;4.27;1.20;;;12.10;99.90;;;;;;5048841;28;20221;-88
2022/04/28 11:17:28;;;;;;;4.77;1.50;;;12.10;99.90;;;;;;5082255;28;20836;-88
2022/04/28 11:19:54;;;;;;;3.53;0.90;;;12.20;99.90;;;;;;5049181;28;20970;-86
2022/04/28 11:22:21;;;;;;;1.97;1.27;;;12.20;99.90;;;;;;5081473;28;20201;-86
2022/04/28 11:24:49;;;;;;;2.50;1.50;;;12.50;99.90;;;;;;5049262;28;20194;-88
2022/04/28 11:27:18;;;;;;;0.60;0.60;;;12.40;99.90;;;;;;5049216;28;20210;-87
2022/04/28 11:29:44;;;;;;;1.10;1.00;;;12.40;99.90;;;;;;5032472;28;20217;-89
2022/04/28 11:32:11;;;;;;;3.17;1.03;;;12.50;99.90;;;;;;5033182;28;20660;-88
2022/04/28 11:34:37;;;;;;;1.77;1.13;;;12.40;99.90;;;;;;5048509;28;20240;-89
2022/04/28 11:37:37;;;;;;;1.20;1.07;;;12.30;99.90;;;;;;5066000;28;20190;-88
2022/04/28 11:40:04;;;;;;;2.17;1.30;;;12.20;99.90;;;;;;5034285;28;20225;-88
2022/04/28 11:42:33;;;;;;;7.23;1.00;;;12.40;99.90;;;;;;5032501;28;20221;-89
2022/04/28 11:45:00;;;;;;;4.53;1.10;;;12.40;99.90;;;;;;5048887;28;20213;-87
2022/04/28 11:47:27;;;;;;;3.97;1.00;;;12.40;99.90;;;;;;5032583;28;20221;-90
2022/04/28 11:49:58;;;;;;;3.30;1.67;;;12.20;99.90;;;;;;5032221;28;20230;-89
2022/04/28 11:52:29;;;;;;;1.60;0.73;;;12.30;99.90;;;;;;5048847;28;20658;-86
2022/04/28 11:54:58;;;;;;;3.80;1.10;;;12.40;99.90;;;;;;5048602;28;20237;-88
2022/04/28 11:57:24;;;;;;;2.70;1.43;;;12.40;99.90;;;;;;5056440;28;20589;-87
2022/04/28 11:59:51;;;;;;;2.43;0.70;;;11.90;99.90;;;;;;5064752;28;20220;-89
2022/04/28 12:02:34;;;;;;;1.80;0.97;;;11.60;99.90;;;;;;5082005;28;20371;-86
2022/04/28 12:05:25;;;;;;;2.67;1.10;;;11.60;99.90;;;;;;5047900;28;20255;-89
2022/04/28 12:07:52;;;;;;;0.83;0.83;;;12.10;99.90;;;;;;5039676;28;20202;-87
2022/04/28 12:16:16;;;;;;;4.00;1.37;;;12.30;99.90;;;;;;5048844;28;20178;-87
2022/04/28 12:21:42;;;;;;;1.57;1.13;;;12.60;99.90;;;;;;5045637;28;20209;-87
2022/04/28 12:24:23;;;;;;;0.87;0.87;;;12.70;99.90;;;;;;5079280;28;20300;-87
2022/04/28 12:26:51;;;;;;;1.03;0.93;;;12.50;99.90;;;;;;5038437;28;20221;-88
2022/04/28 12:29:19;;;;;;;2.40;1.10;;;12.50;99.90;;;;;;5046783;28;20222;-86
2022/04/28 12:31:45;;;;;;;5.10;1.03;;;12.70;99.90;;;;;;5047772;28;20747;-85
2022/04/28 12:34:22;;;;;;;2.47;1.80;;;12.50;99.90;;;;;;5079703;28;20210;-86
2022/04/28 12:36:57;;;;;;;9.33;2.03;;;12.60;99.90;;;;;;5018328;28;20207;-87
2022/04/28 12:39:26;;;;;;;1.33;0.83;;;12.70;99.90;;;;;;5042132;28;20218;-89
2022/04/28 12:41:52;;;;;;;1.57;1.00;;;12.50;99.90;;;;;;5043307;28;20273;-88
2022/04/28 12:44:18;;;;;;;0.80;0.80;;;12.40;99.90;;;;;;5010940;28;20703;-87
2022/04/28 12:46:45;;;;;;;0.77;0.70;;;12.30;99.90;;;;;;5027463;28;20264;-86
2022/04/28 12:49:19;;;;;;;2.33;1.23;;;12.50;99.90;;;;;;5044559;28;20222;-87
2022/04/28 12:51:51;;;;;;;2.37;1.20;;;12.60;99.90;;;;;;5027591;28;20226;-87
2022/04/28 12:54:20;;;;;;;0.90;0.90;;;12.20;99.90;;;;;;5026869;28;20297;-88
2022/04/28 12:56:59;;;;;;;4.33;1.10;;;12.30;99.90;;;;;;5060361;28;20591;-88
2022/04/28 12:59:31;;;;;;;3.67;1.63;;;12.20;99.90;;;;;;5027507;28;20210;-88
2022/04/28 13:01:57;;;;;;;0.73;0.73;;;12.10;99.90;;;;;;5026675;28;20214;-88
2022/04/28 13:04:26;;;;;;;1.00;1.00;;;12.00;99.90;;;;;;5010933;28;20190;-87
2022/04/28 13:06:52;;;;;;;4.93;1.70;;;12.30;99.90;;;;;;5028903;28;20182;-89
2022/04/28 13:09:20;;;;;;;5.63;1.43;;;12.50;99.90;;;;;;5043545;28;20214;-88
2022/04/28 13:11:48;;;;;;;0.80;0.80;;;12.80;99.90;;;;;;5026696;28;20254;-89
2022/04/28 13:14:20;;;;;;;1.00;0.83;;;12.60;99.90;;;;;;5027266;28;20233;-89
2022/04/28 13:16:46;;;;;;;0.87;0.87;;;12.50;99.90;;;;;;5027390;28;20622;-88
2022/04/28 13:19:13;;;;;;;1.03;0.93;;;12.30;99.90;;;;;;5011309;28;20619;-89
2022/04/28 13:21:39;;;;;;;1.10;1.07;;;12.10;99.90;;;;;;5043663;28;20206;-89
2022/04/28 13:24:07;;;;;;;1.20;1.10;;;12.30;99.90;;;;;;5010555;28;20252;-89
2022/04/28 13:26:33;;;;;;;1.63;0.97;;;12.50;99.90;;;;;;5027082;28;20225;-91
2022/04/28 13:28:59;;;;;;;3.00;1.20;;;12.40;99.90;;;;;;5027226;28;20301;-89
2022/04/28 13:31:26;;;;;;;1.27;0.90;;;12.40;99.90;;;;;;5043153;28;20202;-90
2022/04/28 13:33:53;;;;;;;1.33;1.23;;;12.70;99.90;;;;;;5027563;28;20603;-91
2022/04/28 13:36:19;;;;;;;1.93;1.00;;;13.00;99.90;;;;;;5018213;28;20934;-90